Time;durP1;ratioP1;P1;durP2;ratioP2;P2;SDS_P1;SDS_P2;PMS_P1;PMS_P2;Temp;Humidity;BMP_temperature;BMP_pressure;BME280_temperature;BME280_humidity;BME280_pressure;Samples;Min_cycle;Max_cycle;Signal;HPM_P1;HPM_P2
2024/01/02 00:02:17;;;;;;;0.60;0.50;;;5.90;99.90;;;;;;5057824;28;20967;-82
2024/01/02 00:04:44;;;;;;;0.90;0.30;;;5.90;99.90;;;;;;5058530;28;20450;-81
2024/01/02 00:07:11;;;;;;;0.50;0.30;;;5.80;99.90;;;;;;5058843;28;20451;-81
2024/01/02 00:09:37;;;;;;;0.40;0.40;;;5.80;99.90;;;;;;5058210;28;20470;-81
2024/01/02 00:12:07;;;;;;;0.30;0.27;;;5.80;99.90;;;;;;5059171;28;20481;-81
2024/01/02 00:14:35;;;;;;;1.03;0.43;;;5.80;99.90;;;;;;5059906;28;20454;-80
2024/01/02 00:17:02;;;;;;;0.30;0.20;;;5.80;99.90;;;;;;5059997;28;20460;-81
2024/01/02 00:19:29;;;;;;;0.40;0.30;;;5.80;99.90;;;;;;5058746;28;20449;-80
2024/01/02 00:21:55;;;;;;;0.40;0.30;;;5.70;99.90;;;;;;5058693;28;20802;-80
2024/01/02 00:24:22;;;;;;;0.30;0.23;;;5.70;99.90;;;;;;5058954;28;20442;-80
2024/01/02 00:26:49;;;;;;;0.30;0.30;;;5.80;99.90;;;;;;5058826;28;20453;-80
2024/01/02 00:29:16;;;;;;;0.40;0.40;;;5.80;99.90;;;;;;5058695;28;20465;-80
2024/01/02 00:31:45;;;;;;;0.40;0.40;;;5.80;99.90;;;;;;5059014;28;20481;-81
2024/01/02 00:34:12;;;;;;;0.30;0.20;;;5.80;99.90;;;;;;5058233;28;20446;-80
2024/01/02 00:36:39;;;;;;;0.30;0.30;;;5.70;99.90;;;;;;5058538;28;20445;-80
2024/01/02 00:39:05;;;;;;;2.83;0.50;;;5.70;99.90;;;;;;5057378;28;20465;-81
2024/01/02 00:41:32;;;;;;;0.50;0.40;;;5.70;99.90;;;;;;5057341;28;21016;-85
2024/01/02 00:43:59;;;;;;;1.67;0.60;;;5.70;99.90;;;;;;5056912;28;20930;-85
2024/01/02 00:46:26;;;;;;;0.40;0.30;;;5.70;99.90;;;;;;5057251;28;20453;-85
2024/01/02 00:48:54;;;;;;;2.20;0.40;;;5.70;99.90;;;;;;5056497;28;20461;-85
2024/01/02 00:51:20;;;;;;;0.40;0.30;;;5.60;99.90;;;;;;5057028;28;20482;-85
2024/01/02 00:53:47;;;;;;;0.37;0.30;;;5.70;99.90;;;;;;5057059;28;20971;-84
2024/01/02 00:56:14;;;;;;;0.30;0.30;;;5.60;99.90;;;;;;5056605;28;20441;-85
2024/01/02 00:58:41;;;;;;;0.40;0.40;;;5.60;99.90;;;;;;5061214;28;20472;-85
2024/01/02 01:01:08;;;;;;;2.40;0.40;;;5.70;99.90;;;;;;5058500;28;20441;-84
2024/01/02 01:03:35;;;;;;;0.47;0.27;;;5.70;99.90;;;;;;5058126;28;20456;-85
2024/01/02 01:06:04;;;;;;;6.73;0.40;;;5.60;99.90;;;;;;5058048;28;20453;-84
2024/01/02 01:08:30;;;;;;;0.30;0.30;;;5.70;99.90;;;;;;5056915;28;20489;-85
2024/01/02 01:10:57;;;;;;;0.30;0.30;;;5.70;99.90;;;;;;5057983;28;20442;-84
2024/01/02 01:13:24;;;;;;;0.60;0.43;;;5.70;99.90;;;;;;5057320;28;20446;-84
2024/01/02 01:15:51;;;;;;;0.60;0.40;;;5.70;99.90;;;;;;5057570;28;20450;-84
2024/01/02 01:18:17;;;;;;;0.30;0.30;;;5.70;99.90;;;;;;5057209;28;20482;-85
2024/01/02 01:20:44;;;;;;;0.40;0.37;;;5.70;99.90;;;;;;5056778;28;20450;-83
2024/01/02 01:23:12;;;;;;;0.40;0.30;;;5.70;99.90;;;;;;5056629;28;20450;-84
2024/01/02 01:25:39;;;;;;;1.70;0.30;;;5.70;99.90;;;;;;5057110;28;20446;-85
2024/01/02 01:28:06;;;;;;;0.40;0.30;;;5.70;99.90;;;;;;5056600;28;20465;-85
2024/01/02 01:30:32;;;;;;;0.30;0.20;;;5.70;99.90;;;;;;5057276;28;20441;-85
2024/01/02 01:32:59;;;;;;;0.60;0.40;;;5.70;99.90;;;;;;5057465;28;20488;-84
2024/01/02 01:35:26;;;;;;;0.30;0.30;;;5.70;99.90;;;;;;5057612;28;20453;-85
2024/01/02 01:37:53;;;;;;;0.30;0.30;;;5.70;99.90;;;;;;5056741;28;20462;-84
2024/01/02 01:40:21;;;;;;;0.97;0.30;;;5.80;99.90;;;;;;5056670;28;20446;-83
2024/01/02 01:42:48;;;;;;;0.90;0.40;;;5.80;99.90;;;;;;5057277;28;20469;-85
2024/01/02 01:45:14;;;;;;;0.40;0.33;;;5.80;99.90;;;;;;5057009;28;21065;-84
2024/01/02 01:47:41;;;;;;;0.40;0.40;;;5.80;99.90;;;;;;5056313;28;20825;-84
2024/01/02 01:50:09;;;;;;;0.40;0.30;;;5.80;99.90;;;;;;5056490;28;20507;-84
2024/01/02 01:52:36;;;;;;;0.30;0.27;;;5.80;99.90;;;;;;5056631;28;20484;-84
2024/01/02 01:55:04;;;;;;;0.60;0.40;;;5.80;99.90;;;;;;5056603;28;20450;-84
2024/01/02 01:57:33;;;;;;;0.40;0.30;;;5.80;99.90;;;;;;5056461;28;20462;-84
2024/01/02 02:00:00;;;;;;;0.30;0.20;;;5.80;99.90;;;;;;5055754;28;20521;-84
2024/01/02 02:02:27;;;;;;;0.30;0.30;;;5.80;99.90;;;;;;5056373;28;20943;-84
2024/01/02 02:04:55;;;;;;;0.30;0.30;;;5.80;99.90;;;;;;5055903;28;21030;-84
2024/01/02 02:07:22;;;;;;;0.50;0.30;;;5.80;99.90;;;;;;5055888;28;20560;-84
2024/01/02 02:09:49;;;;;;;0.40;0.30;;;5.80;99.90;;;;;;5055901;28;20477;-84
2024/01/02 02:12:16;;;;;;;2.20;0.30;;;5.80;99.90;;;;;;5055657;28;21009;-84
2024/01/02 02:14:44;;;;;;;0.50;0.30;;;5.80;99.90;;;;;;5055632;28;20446;-84
2024/01/02 02:17:19;;;;;;;0.30;0.30;;;5.80;99.90;;;;;;5056312;28;20455;-84
2024/01/02 02:19:46;;;;;;;0.40;0.30;;;5.70;99.90;;;;;;5056178;28;20476;-84
2024/01/02 02:22:14;;;;;;;2.30;0.60;;;5.70;99.90;;;;;;5055730;28;20442;-84
2024/01/02 02:24:42;;;;;;;0.30;0.30;;;5.70;99.90;;;;;;5056762;28;20446;-84
2024/01/02 02:27:09;;;;;;;0.30;0.30;;;5.60;99.90;;;;;;5056624;28;20448;-83
2024/01/02 02:29:36;;;;;;;1.00;0.50;;;5.60;99.90;;;;;;5056846;28;20452;-84
2024/01/02 02:32:03;;;;;;;0.30;0.20;;;5.50;99.90;;;;;;5057694;28;20856;-84
2024/01/02 02:34:29;;;;;;;0.30;0.30;;;5.50;99.90;;;;;;5057459;28;20453;-85
2024/01/02 02:36:56;;;;;;;0.30;0.20;;;5.40;99.90;;;;;;5055943;28;20456;-84
2024/01/02 02:39:23;;;;;;;0.67;0.67;;;5.30;99.90;;;;;;5056483;28;20464;-84
2024/01/02 02:41:51;;;;;;;0.30;0.30;;;5.30;99.90;;;;;;5057341;28;20446;-83
2024/01/02 02:44:18;;;;;;;0.40;0.40;;;5.20;99.90;;;;;;5055859;28;20449;-85
2024/01/02 02:46:45;;;;;;;0.30;0.30;;;5.10;99.90;;;;;;5055432;28;20445;-85
2024/01/02 02:49:11;;;;;;;0.30;0.30;;;5.10;99.90;;;;;;5055512;28;20458;-84
2024/01/02 02:51:38;;;;;;;0.30;0.30;;;5.00;99.90;;;;;;5057142;28;20474;-84
2024/01/02 02:54:05;;;;;;;0.40;0.30;;;5.00;99.90;;;;;;5056830;28;20827;-83
2024/01/02 02:56:31;;;;;;;0.30;0.30;;;4.90;99.90;;;;;;5058184;28;20438;-83
2024/01/02 02:58:59;;;;;;;0.30;0.30;;;4.80;99.90;;;;;;5057487;28;20837;-85
2024/01/02 03:01:26;;;;;;;0.30;0.30;;;4.70;99.90;;;;;;5059038;28;20452;-83
2024/01/02 03:03:53;;;;;;;0.30;0.30;;;4.70;99.90;;;;;;5058372;28;20441;-83
2024/01/02 03:06:20;;;;;;;0.30;0.30;;;4.80;99.90;;;;;;5058756;28;20450;-83
2024/01/02 03:08:47;;;;;;;0.80;0.40;;;4.80;99.90;;;;;;5059233;28;20990;-83
2024/01/02 03:11:13;;;;;;;0.30;0.20;;;4.80;99.90;;;;;;5060938;28;20445;-84
2024/01/02 03:13:40;;;;;;;0.30;0.30;;;4.70;99.90;;;;;;5061185;28;20477;-84
2024/01/02 03:16:10;;;;;;;0.40;0.30;;;4.70;99.90;;;;;;5061013;28;20456;-84
2024/01/02 03:18:36;;;;;;;0.30;0.30;;;4.70;99.90;;;;;;5062026;28;20461;-84
2024/01/02 03:21:03;;;;;;;0.37;0.37;;;4.60;99.90;;;;;;5061404;28;20445;-84
2024/01/02 03:23:30;;;;;;;0.40;0.40;;;4.60;99.90;;;;;;5061435;28;20445;-85
2024/01/02 03:25:57;;;;;;;0.30;0.30;;;4.60;99.90;;;;;;5060697;28;20441;-85
2024/01/02 03:28:23;;;;;;;0.30;0.20;;;4.70;99.90;;;;;;5060392;28;20457;-84
2024/01/02 03:30:50;;;;;;;0.30;0.30;;;4.70;99.90;;;;;;5060318;28;20453;-86
2024/01/02 03:33:18;;;;;;;0.30;0.30;;;4.70;99.90;;;;;;5060296;28;21018;-84
2024/01/02 03:35:45;;;;;;;0.30;0.30;;;4.70;99.90;;;;;;5059577;28;20452;-84
2024/01/02 03:38:12;;;;;;;0.30;0.30;;;4.70;99.90;;;;;;5060349;28;20462;-84
2024/01/02 03:40:39;;;;;;;0.73;0.73;;;4.70;99.90;;;;;;5060305;28;20446;-84
2024/01/02 03:43:06;;;;;;;0.30;0.30;;;4.70;99.90;;;;;;5060019;28;20449;-84
2024/01/02 03:45:33;;;;;;;0.30;0.30;;;4.70;99.90;;;;;;5060107;28;20449;-85
2024/01/02 03:48:01;;;;;;;0.40;0.40;;;4.80;99.90;;;;;;5060151;28;20468;-84
2024/01/02 03:50:29;;;;;;;0.67;0.60;;;4.80;99.90;;;;;;5059942;28;20441;-84
2024/01/02 03:52:56;;;;;;;0.40;0.30;;;4.80;99.90;;;;;;5059444;28;20477;-86
2024/01/02 03:55:23;;;;;;;0.30;0.30;;;4.80;99.90;;;;;;5059181;28;20446;-84
2024/01/02 03:57:49;;;;;;;0.40;0.30;;;4.70;99.90;;;;;;5060385;28;20475;-85
2024/01/02 04:00:16;;;;;;;0.30;0.30;;;4.70;99.90;;;;;;5060128;28;20464;-83
2024/01/02 04:02:43;;;;;;;0.30;0.20;;;4.80;99.90;;;;;;5058485;28;20444;-84
2024/01/02 04:05:10;;;;;;;0.30;0.30;;;4.70;99.90;;;;;;5058788;28;20448;-85
2024/01/02 04:07:38;;;;;;;0.37;0.27;;;4.80;99.90;;;;;;5058738;28;20473;-86
2024/01/02 04:10:06;;;;;;;0.80;0.40;;;4.80;99.90;;;;;;5057839;28;20474;-85
2024/01/02 04:12:33;;;;;;;0.30;0.30;;;4.70;99.90;;;;;;5057850;28;20477;-85
2024/01/02 04:15:00;;;;;;;0.40;0.33;;;4.80;99.90;;;;;;5058639;28;20975;-84
2024/01/02 04:17:27;;;;;;;0.30;0.30;;;4.80;99.90;;;;;;5059544;28;20470;-85
2024/01/02 04:19:53;;;;;;;0.30;0.20;;;4.70;99.90;;;;;;5059162;28;20457;-84
2024/01/02 04:22:20;;;;;;;0.30;0.20;;;4.80;99.90;;;;;;5059196;28;20820;-83
2024/01/02 04:24:48;;;;;;;0.30;0.30;;;4.70;99.90;;;;;;5061257;28;20445;-83
2024/01/02 04:27:15;;;;;;;0.40;0.30;;;4.70;99.90;;;;;;5060829;28;20458;-82
2024/01/02 04:29:41;;;;;;;0.30;0.30;;;4.80;99.90;;;;;;5060976;28;20442;-83
2024/01/02 04:32:08;;;;;;;0.30;0.30;;;4.80;99.90;;;;;;5060769;28;20974;-81
2024/01/02 04:34:35;;;;;;;0.30;0.30;;;4.80;99.90;;;;;;5060957;28;20469;-83
2024/01/02 04:37:01;;;;;;;0.30;0.20;;;4.70;99.90;;;;;;5060984;28;20981;-84
2024/01/02 04:39:28;;;;;;;0.30;0.30;;;4.70;99.90;;;;;;5060668;28;20445;-84
2024/01/02 04:41:56;;;;;;;0.30;0.30;;;4.70;99.90;;;;;;5061716;28;20442;-82
2024/01/02 04:44:23;;;;;;;0.30;0.20;;;4.80;99.90;;;;;;5061672;28;20437;-84
2024/01/02 04:46:50;;;;;;;0.40;0.30;;;4.80;99.90;;;;;;5061419;28;20448;-81
2024/01/02 04:49:18;;;;;;;0.30;0.30;;;4.80;99.90;;;;;;5060513;28;20462;-83
2024/01/02 04:51:44;;;;;;;0.40;0.30;;;4.80;99.90;;;;;;5061181;28;20533;-82
2024/01/02 04:54:11;;;;;;;0.30;0.20;;;4.80;99.90;;;;;;5060028;28;20488;-84
2024/01/02 04:56:38;;;;;;;1.47;0.40;;;4.80;99.90;;;;;;5060727;28;20451;-82
2024/01/02 04:59:07;;;;;;;0.37;0.30;;;4.80;99.90;;;;;;5061001;28;20470;-83
2024/01/02 05:01:34;;;;;;;0.97;0.60;;;4.80;99.90;;;;;;5061077;28;20442;-81
2024/01/02 05:04:00;;;;;;;2.50;0.40;;;4.80;99.90;;;;;;5060859;28;20465;-85
2024/01/02 05:06:27;;;;;;;0.30;0.30;;;4.80;99.90;;;;;;5061191;28;20449;-84
2024/01/02 05:08:54;;;;;;;1.53;0.30;;;4.80;99.90;;;;;;5060996;28;20489;-83
2024/01/02 05:11:20;;;;;;;0.40;0.40;;;4.70;99.90;;;;;;5061180;28;20465;-82
2024/01/02 05:13:47;;;;;;;0.60;0.30;;;4.70;99.90;;;;;;5059968;28;20492;-84
2024/01/02 05:16:15;;;;;;;0.33;0.33;;;4.70;99.90;;;;;;5059130;28;20805;-83
2024/01/02 05:18:42;;;;;;;1.13;0.60;;;4.70;99.90;;;;;;5061229;28;20469;-86
2024/01/02 05:21:09;;;;;;;0.30;0.30;;;4.70;99.90;;;;;;5057346;28;20446;-84
2024/01/02 05:23:35;;;;;;;0.40;0.40;;;4.70;99.90;;;;;;5057134;28;20446;-85
2024/01/02 05:26:02;;;;;;;0.40;0.40;;;4.70;99.90;;;;;;5057935;28;20446;-84
2024/01/02 05:28:29;;;;;;;2.30;0.30;;;4.70;99.90;;;;;;5057099;28;20466;-84
2024/01/02 05:30:56;;;;;;;0.30;0.30;;;4.70;99.90;;;;;;5057091;28;20838;-85
2024/01/02 05:33:24;;;;;;;0.30;0.30;;;4.80;99.90;;;;;;5056705;28;20482;-85
2024/01/02 05:35:50;;;;;;;0.30;0.30;;;4.80;99.90;;;;;;5056815;28;20442;-84
2024/01/02 05:38:17;;;;;;;0.30;0.30;;;4.80;99.90;;;;;;5056426;28;20485;-85
2024/01/02 05:40:44;;;;;;;0.37;0.37;;;4.80;99.90;;;;;;5056219;28;20445;-86
2024/01/02 05:43:11;;;;;;;0.30;0.20;;;4.80;99.90;;;;;;5056143;28;20438;-85
2024/01/02 05:45:37;;;;;;;0.30;0.30;;;4.80;99.90;;;;;;5056751;28;20813;-86
2024/01/02 05:48:05;;;;;;;0.30;0.30;;;4.80;99.90;;;;;;5055778;28;20466;-86
2024/01/02 05:50:33;;;;;;;0.30;0.30;;;4.80;99.90;;;;;;5055744;28;20520;-85
2024/01/02 05:53:00;;;;;;;0.40;0.30;;;4.80;99.90;;;;;;5055683;28;20474;-85
2024/01/02 05:55:26;;;;;;;0.30;0.30;;;4.80;99.90;;;;;;5054913;28;20446;-85
2024/01/02 05:57:53;;;;;;;0.30;0.30;;;4.80;99.90;;;;;;5054341;28;20998;-86
2024/01/02 06:00:20;;;;;;;0.30;0.20;;;4.80;99.90;;;;;;5054597;28;20442;-85
2024/01/02 06:02:47;;;;;;;0.30;0.30;;;4.90;99.90;;;;;;5054893;28;20442;-85
2024/01/02 06:05:15;;;;;;;0.30;0.30;;;4.90;99.90;;;;;;5055412;28;20453;-86
2024/01/02 06:07:43;;;;;;;0.50;0.30;;;4.90;99.90;;;;;;5054853;28;20512;-85
2024/01/02 06:10:10;;;;;;;0.40;0.37;;;4.90;99.90;;;;;;5054787;28;20486;-85
2024/01/02 06:12:37;;;;;;;0.30;0.30;;;4.90;99.90;;;;;;5054875;28;20549;-85
2024/01/02 06:15:04;;;;;;;0.33;0.33;;;5.00;99.90;;;;;;5054949;28;20521;-86
2024/01/02 06:17:31;;;;;;;0.30;0.30;;;5.00;99.90;;;;;;5054944;28;20512;-87
2024/01/02 06:19:58;;;;;;;0.50;0.30;;;5.00;99.90;;;;;;5055153;28;20453;-86
2024/01/02 06:22:25;;;;;;;0.30;0.20;;;5.00;99.90;;;;;;5055729;28;20449;-86
2024/01/02 06:24:53;;;;;;;0.30;0.30;;;5.00;99.90;;;;;;5055788;28;20449;-84
2024/01/02 06:27:19;;;;;;;0.33;0.30;;;5.00;99.90;;;;;;5055305;28;20466;-84
2024/01/02 06:29:46;;;;;;;0.57;0.30;;;5.00;99.90;;;;;;5054646;28;20931;-84
2024/01/02 06:32:13;;;;;;;0.50;0.30;;;5.00;99.90;;;;;;5054877;28;20456;-85
2024/01/02 06:34:40;;;;;;;0.30;0.20;;;5.00;99.90;;;;;;5054479;28;20521;-86
2024/01/02 06:37:06;;;;;;;0.30;0.27;;;5.00;99.90;;;;;;5054621;28;20447;-86
2024/01/02 06:39:34;;;;;;;0.30;0.30;;;5.00;99.90;;;;;;5054818;28;20434;-86
2024/01/02 06:42:02;;;;;;;0.60;0.40;;;5.00;99.90;;;;;;5054943;28;20853;-84
2024/01/02 06:44:29;;;;;;;0.30;0.30;;;5.00;99.90;;;;;;5055396;28;20458;-86
2024/01/02 06:46:56;;;;;;;0.30;0.20;;;5.00;99.90;;;;;;5057690;28;20442;-84
2024/01/02 06:49:23;;;;;;;0.30;0.20;;;5.00;99.90;;;;;;5058968;28;20488;-85
2024/01/02 06:51:50;;;;;;;0.30;0.30;;;5.00;99.90;;;;;;5058958;28;20438;-86
2024/01/02 06:54:16;;;;;;;0.30;0.30;;;5.00;99.90;;;;;;5058379;28;20857;-86
2024/01/02 06:56:43;;;;;;;0.30;0.30;;;5.10;99.90;;;;;;5057942;28;20453;-85
2024/01/02 06:59:11;;;;;;;0.30;0.30;;;5.00;99.90;;;;;;5057807;28;20477;-84
2024/01/02 07:01:38;;;;;;;0.57;0.30;;;5.10;99.90;;;;;;5058272;28;20457;-86
2024/01/02 07:04:04;;;;;;;0.30;0.30;;;5.10;99.90;;;;;;5057996;28;20437;-86
2024/01/02 07:06:31;;;;;;;0.30;0.30;;;5.10;99.90;;;;;;5057663;28;20453;-86
2024/01/02 07:08:58;;;;;;;0.30;0.30;;;5.10;99.90;;;;;;5056935;28;20978;-86
2024/01/02 07:11:25;;;;;;;0.37;0.30;;;5.10;99.90;;;;;;5057356;28;20843;-85
2024/01/02 07:13:52;;;;;;;0.30;0.30;;;5.10;99.90;;;;;;5057596;28;20484;-86
2024/01/02 07:16:20;;;;;;;0.50;0.37;;;5.10;99.90;;;;;;5057969;28;20449;-85
2024/01/02 07:18:46;;;;;;;0.30;0.30;;;5.10;99.90;;;;;;5057354;28;20461;-86
2024/01/02 07:21:13;;;;;;;0.30;0.20;;;5.10;99.90;;;;;;5057928;28;20436;-86
2024/01/02 07:23:40;;;;;;;0.37;0.30;;;5.20;99.90;;;;;;5057941;28;20442;-84
2024/01/02 07:26:06;;;;;;;0.40;0.30;;;5.20;99.90;;;;;;5061302;28;20962;-87
2024/01/02 07:28:33;;;;;;;0.97;0.30;;;5.20;99.90;;;;;;5058433;28;20469;-86
2024/01/02 07:31:00;;;;;;;0.30;0.20;;;5.20;99.90;;;;;;5058874;28;20446;-86
2024/01/02 07:33:28;;;;;;;0.30;0.20;;;5.30;99.90;;;;;;5059000;28;20481;-85
2024/01/02 07:35:55;;;;;;;0.30;0.30;;;5.30;99.90;;;;;;5059188;28;20524;-86
2024/01/02 07:38:26;;;;;;;0.40;0.30;;;5.30;99.90;;;;;;5059155;28;20476;-83
2024/01/02 07:40:52;;;;;;;0.30;0.30;;;5.40;99.90;;;;;;5056964;28;20910;-86
2024/01/02 07:43:19;;;;;;;0.30;0.30;;;5.40;99.90;;;;;;5056827;28;20438;-86
2024/01/02 07:45:46;;;;;;;0.30;0.20;;;5.50;99.90;;;;;;5056751;28;20464;-86
2024/01/02 07:48:13;;;;;;;0.33;0.30;;;5.60;99.90;;;;;;5056477;28;20553;-85
2024/01/02 07:50:41;;;;;;;0.30;0.30;;;5.60;99.90;;;;;;5056679;28;20457;-85
2024/01/02 07:53:08;;;;;;;0.30;0.20;;;5.60;99.90;;;;;;5056826;28;20438;-86
2024/01/02 07:55:34;;;;;;;0.30;0.30;;;5.60;99.90;;;;;;5056620;28;20450;-86
2024/01/02 07:58:01;;;;;;;0.30;0.30;;;5.70;99.90;;;;;;5056660;28;20462;-86
2024/01/02 08:00:28;;;;;;;0.30;0.30;;;5.70;99.90;;;;;;5056658;28;20445;-86
2024/01/02 08:02:54;;;;;;;0.30;0.20;;;5.80;99.90;;;;;;5056258;28;20788;-84
2024/01/02 08:05:21;;;;;;;0.30;0.20;;;5.80;99.90;;;;;;5056207;28;20449;-84
2024/01/02 08:07:49;;;;;;;0.30;0.20;;;5.90;99.90;;;;;;5056307;28;20466;-87
2024/01/02 08:10:16;;;;;;;0.30;0.27;;;5.90;99.90;;;;;;5056193;28;20444;-85
2024/01/02 08:12:43;;;;;;;2.30;0.43;;;6.00;99.90;;;;;;5056134;28;20445;-84
2024/01/02 08:15:10;;;;;;;0.30;0.20;;;6.00;99.90;;;;;;5056084;28;20489;-86
2024/01/02 08:17:37;;;;;;;0.30;0.30;;;6.10;99.90;;;;;;5057255;28;20462;-85
2024/01/02 08:20:05;;;;;;;0.30;0.30;;;6.20;99.90;;;;;;5056440;28;20466;-85
2024/01/02 08:22:32;;;;;;;0.40;0.40;;;6.20;99.90;;;;;;5056137;28;20446;-86
2024/01/02 08:25:00;;;;;;;0.30;0.20;;;6.20;99.90;;;;;;5055269;28;20449;-85
2024/01/02 08:27:27;;;;;;;0.30;0.20;;;6.20;99.90;;;;;;5055491;28;20986;-86
2024/01/02 08:29:54;;;;;;;0.30;0.30;;;6.30;99.90;;;;;;5055411;28;20438;-85
2024/01/02 08:32:21;;;;;;;0.97;0.40;;;6.30;99.90;;;;;;5055666;28;20446;-85
2024/01/02 08:34:49;;;;;;;0.30;0.30;;;6.30;99.90;;;;;;5055336;28;20492;-85
2024/01/02 08:37:15;;;;;;;0.30;0.20;;;6.30;99.90;;;;;;5055309;28;20514;-85
2024/01/02 08:39:42;;;;;;;0.30;0.20;;;6.30;99.90;;;;;;5055702;28;20446;-85
2024/01/02 08:42:10;;;;;;;0.30;0.27;;;6.40;99.90;;;;;;5055641;28;20445;-86
2024/01/02 08:44:37;;;;;;;0.30;0.20;;;6.40;99.90;;;;;;5055496;28;20446;-86
2024/01/02 08:47:04;;;;;;;0.30;0.20;;;6.40;99.90;;;;;;5055220;28;20457;-85
2024/01/02 08:49:31;;;;;;;0.30;0.30;;;6.40;99.90;;;;;;5055175;28;20839;-85
2024/01/02 08:51:58;;;;;;;0.30;0.20;;;6.40;99.90;;;;;;5055020;28;20450;-86
2024/01/02 08:54:25;;;;;;;0.30;0.30;;;6.40;99.90;;;;;;5055241;28;20484;-85
2024/01/02 08:56:51;;;;;;;0.30;0.20;;;6.40;99.90;;;;;;5055564;28;20441;-85
2024/01/02 08:59:19;;;;;;;0.37;0.30;;;6.50;99.90;;;;;;5055601;28;20461;-85
2024/01/02 09:01:51;;;;;;;0.30;0.20;;;6.50;99.90;;;;;;5056008;28;20450;-86
2024/01/02 09:04:18;;;;;;;0.30;0.20;;;6.50;99.90;;;;;;5055032;28;20431;-86
2024/01/02 09:06:45;;;;;;;0.30;0.30;;;6.60;99.90;;;;;;5055011;28;20442;-86
2024/01/02 09:09:12;;;;;;;0.30;0.30;;;6.60;99.90;;;;;;5053820;28;20481;-86
2024/01/02 09:11:38;;;;;;;0.30;0.20;;;6.60;99.90;;;;;;5054731;28;20450;-86
2024/01/02 09:14:05;;;;;;;0.30;0.20;;;6.60;99.90;;;;;;5054760;28;20481;-86
2024/01/02 09:16:35;;;;;;;0.30;0.30;;;6.70;99.90;;;;;;5054682;28;20441;-86
2024/01/02 09:19:02;;;;;;;0.30;0.20;;;6.60;99.90;;;;;;5054772;28;20461;-85
2024/01/02 09:21:29;;;;;;;0.30;0.30;;;6.70;99.90;;;;;;5055374;28;20442;-85
2024/01/02 09:23:56;;;;;;;0.30;0.20;;;6.70;99.90;;;;;;5055504;28;20446;-86
2024/01/02 09:26:24;;;;;;;0.30;0.20;;;6.70;99.90;;;;;;5054933;28;20454;-85
2024/01/02 09:28:51;;;;;;;0.30;0.20;;;6.60;99.90;;;;;;5054919;28;20488;-85
2024/01/02 09:31:19;;;;;;;0.30;0.30;;;6.70;99.90;;;;;;5054732;28;20823;-85
2024/01/02 09:33:47;;;;;;;0.30;0.20;;;6.80;99.90;;;;;;5054449;28;20488;-85
2024/01/02 09:36:14;;;;;;;0.30;0.30;;;6.80;99.90;;;;;;5058805;28;20445;-85
2024/01/02 09:38:41;;;;;;;0.40;0.30;;;6.80;99.90;;;;;;5054889;28;20519;-85
2024/01/02 09:41:25;;;;;;;0.30;0.20;;;6.80;99.90;;;;;;5055013;28;20449;-86
2024/01/02 09:44:04;;;;;;;0.30;0.30;;;6.90;99.90;;;;;;5055648;28;20430;-85
2024/01/02 09:46:39;;;;;;;0.30;0.20;;;6.90;99.90;;;;;;5055927;28;20440;-85
2024/01/02 09:49:26;;;;;;;0.30;0.20;;;7.00;99.90;;;;;;5055327;28;20465;-84
2024/01/02 09:52:08;;;;;;;0.30;0.30;;;6.90;99.90;;;;;;5054952;28;20911;-86
2024/01/02 09:54:46;;;;;;;0.30;0.30;;;7.00;99.90;;;;;;5056525;28;20473;-85
2024/01/02 09:57:22;;;;;;;0.30;0.20;;;7.00;99.90;;;;;;5056590;28;20456;-87
2024/01/02 10:00:01;;;;;;;0.30;0.20;;;7.10;99.90;;;;;;5059683;28;20460;-83
2024/01/02 10:03:09;;;;;;;0.30;0.30;;;7.10;99.90;;;;;;5059862;28;20422;-84
2024/01/02 10:05:52;;;;;;;0.30;0.30;;;7.20;99.90;;;;;;5059563;28;20450;-84
2024/01/02 10:08:44;;;;;;;0.30;0.20;;;7.20;99.90;;;;;;5058682;28;20493;-84
2024/01/02 10:11:22;;;;;;;0.30;0.30;;;7.20;99.90;;;;;;5059935;28;20419;-84
2024/01/02 10:13:58;;;;;;;0.30;0.20;;;7.30;99.90;;;;;;5057264;28;20433;-84
2024/01/02 10:16:35;;;;;;;0.30;0.20;;;7.30;99.90;;;;;;5056447;28;20899;-84
2024/01/02 10:19:15;;;;;;;0.30;0.20;;;7.40;99.90;;;;;;5057337;28;20469;-84
2024/01/02 10:21:51;;;;;;;0.30;0.30;;;7.40;99.90;;;;;;5056088;28;20410;-85
2024/01/02 10:24:37;;;;;;;0.30;0.20;;;7.40;99.90;;;;;;5056727;28;20418;-85
2024/01/02 10:27:09;;;;;;;0.30;0.27;;;7.40;99.90;;;;;;5056870;28;20847;-84
2024/01/02 10:29:49;;;;;;;0.30;0.30;;;7.50;99.90;;;;;;5057170;28;20426;-84
2024/01/02 10:32:20;;;;;;;0.40;0.30;;;7.60;99.90;;;;;;5056912;28;20812;-85
2024/01/02 10:34:57;;;;;;;0.30;0.20;;;7.60;99.90;;;;;;5055408;28;20988;-85
2024/01/02 10:37:29;;;;;;;0.30;0.20;;;7.60;99.90;;;;;;5054952;28;20480;-85
2024/01/02 10:40:06;;;;;;;0.30;0.20;;;7.60;99.90;;;;;;5056868;28;20430;-84
2024/01/02 10:42:49;;;;;;;0.30;0.30;;;7.70;99.90;;;;;;5057704;28;20436;-84
2024/01/02 10:45:21;;;;;;;0.30;0.30;;;7.80;99.90;;;;;;5057533;28;20422;-83
2024/01/02 10:48:01;;;;;;;0.30;0.30;;;7.90;99.90;;;;;;5055894;28;20465;-85
2024/01/02 10:50:32;;;;;;;0.30;0.20;;;7.90;99.90;;;;;;5055415;28;20912;-84
2024/01/02 10:53:13;;;;;;;0.77;0.40;;;7.90;99.90;;;;;;5056115;28;20433;-84
2024/01/02 10:55:48;;;;;;;0.30;0.20;;;7.90;99.90;;;;;;5056323;28;20473;-84
2024/01/02 10:58:20;;;;;;;0.30;0.20;;;7.90;99.90;;;;;;5056440;28;20457;-84
2024/01/02 11:00:59;;;;;;;0.40;0.30;;;8.00;99.90;;;;;;5056553;28;20426;-84
2024/01/02 11:03:29;;;;;;;0.30;0.30;;;8.00;99.90;;;;;;5056402;28;20797;-84
2024/01/02 11:06:02;;;;;;;0.30;0.30;;;8.10;99.90;;;;;;5057629;28;20434;-84
2024/01/02 11:08:41;;;;;;;0.60;0.30;;;8.10;99.90;;;;;;5056873;28;20912;-84
2024/01/02 11:11:11;;;;;;;0.30;0.20;;;8.10;99.90;;;;;;5057023;28;20434;-84
2024/01/02 11:13:40;;;;;;;0.30;0.23;;;8.30;99.90;;;;;;5057305;28;20446;-84
2024/01/02 11:16:12;;;;;;;0.30;0.20;;;8.30;99.90;;;;;;5055252;28;20907;-82
2024/01/02 11:18:41;;;;;;;0.30;0.20;;;8.40;99.90;;;;;;5058925;28;20450;-85
2024/01/02 11:21:14;;;;;;;0.30;0.20;;;8.40;99.90;;;;;;5056115;28;20445;-84
2024/01/02 11:23:45;;;;;;;0.40;0.40;;;8.40;99.90;;;;;;5055192;28;20425;-82
2024/01/02 11:26:20;;;;;;;0.50;0.30;;;8.50;99.90;;;;;;5054842;28;20430;-82
2024/01/02 11:28:49;;;;;;;0.30;0.20;;;8.70;99.90;;;;;;5054286;28;20457;-82
2024/01/02 11:31:17;;;;;;;0.30;0.20;;;8.80;99.90;;;;;;5055244;28;20442;-83
2024/01/02 11:33:59;;;;;;;0.30;0.20;;;8.90;99.90;;;;;;5059307;28;20446;-83
2024/01/02 11:36:33;;;;;;;0.33;0.27;;;8.90;99.90;;;;;;5059636;28;20476;-82
2024/01/02 11:39:07;;;;;;;0.30;0.20;;;8.90;99.90;;;;;;5060700;28;20466;-82
2024/01/02 11:41:53;;;;;;;0.30;0.30;;;8.90;99.90;;;;;;5061032;28;20434;-82
2024/01/02 11:44:30;;;;;;;0.30;0.30;;;8.90;99.90;;;;;;5060451;28;20847;-83
2024/01/02 11:47:03;;;;;;;0.30;0.20;;;8.90;99.90;;;;;;5061080;28;20426;-83
2024/01/02 11:49:32;;;;;;;0.30;0.30;;;8.90;99.90;;;;;;5060083;28;20442;-83
2024/01/02 11:52:11;;;;;;;0.30;0.30;;;8.90;99.90;;;;;;5062631;28;20445;-82
2024/01/02 11:54:44;;;;;;;0.40;0.30;;;8.90;99.90;;;;;;5061953;28;20488;-81
2024/01/02 11:57:18;;;;;;;0.30;0.30;;;9.00;99.90;;;;;;5061550;28;20919;-82
2024/01/02 11:59:53;;;;;;;0.30;0.20;;;9.10;99.90;;;;;;5060942;28;20438;-81
2024/01/02 12:02:27;;;;;;;0.30;0.30;;;9.10;99.90;;;;;;5059297;28;20421;-82
2024/01/02 12:05:04;;;;;;;0.30;0.30;;;9.10;99.90;;;;;;5059831;28;20513;-83
2024/01/02 12:07:37;;;;;;;0.30;0.30;;;9.00;99.90;;;;;;5058586;28;20462;-83
2024/01/02 12:10:07;;;;;;;0.30;0.30;;;9.10;99.90;;;;;;5061519;28;20473;-84
2024/01/02 12:12:45;;;;;;;0.30;0.20;;;9.00;99.90;;;;;;5059060;28;20438;-84
2024/01/02 12:15:25;;;;;;;0.30;0.30;;;9.00;99.90;;;;;;5060045;28;20469;-83
2024/01/02 12:17:58;;;;;;;0.40;0.40;;;9.10;99.90;;;;;;5060547;28;20568;-84
2024/01/02 12:20:26;;;;;;;0.30;0.30;;;9.10;99.90;;;;;;5059882;28;20430;-82
2024/01/02 12:22:54;;;;;;;0.30;0.30;;;9.10;99.90;;;;;;5061045;28;20465;-85
2024/01/02 12:25:22;;;;;;;0.40;0.30;;;9.00;99.90;;;;;;5055808;28;20935;-85
2024/01/02 12:27:52;;;;;;;0.30;0.30;;;8.80;99.90;;;;;;5055499;28;20461;-85
2024/01/02 12:30:25;;;;;;;0.60;0.40;;;8.80;99.90;;;;;;5056458;28;20426;-85
2024/01/02 12:33:01;;;;;;;0.30;0.30;;;8.80;99.90;;;;;;5055394;28;20438;-86
2024/01/02 12:35:31;;;;;;;0.40;0.30;;;8.70;99.90;;;;;;5055362;28;20496;-85
2024/01/02 12:38:14;;;;;;;0.60;0.33;;;8.70;99.90;;;;;;5055609;28;20473;-86
2024/01/02 12:40:45;;;;;;;0.30;0.30;;;8.70;99.90;;;;;;5055359;28;20515;-85
2024/01/02 12:43:13;;;;;;;0.30;0.20;;;8.70;99.90;;;;;;5054307;28;20437;-86
2024/01/02 12:45:45;;;;;;;0.50;0.30;;;8.60;99.90;;;;;;5055062;28;20442;-85
2024/01/02 12:48:15;;;;;;;0.40;0.30;;;8.60;99.90;;;;;;5054967;28;20462;-86
2024/01/02 12:50:44;;;;;;;0.30;0.30;;;8.60;99.90;;;;;;5055120;28;20433;-86
2024/01/02 12:53:11;;;;;;;0.30;0.27;;;8.60;99.90;;;;;;5055050;28;20453;-86
2024/01/02 12:55:49;;;;;;;0.37;0.30;;;8.60;99.90;;;;;;5054802;28;20482;-86
2024/01/02 12:58:18;;;;;;;0.30;0.20;;;8.60;99.90;;;;;;5054401;28;20516;-86
2024/01/02 13:00:45;;;;;;;0.30;0.30;;;8.60;99.90;;;;;;5054662;28;20454;-86
2024/01/02 13:03:14;;;;;;;0.30;0.30;;;8.50;99.90;;;;;;5055627;28;20507;-85
2024/01/02 13:05:43;;;;;;;0.30;0.30;;;8.50;99.90;;;;;;5054294;28;20454;-86
2024/01/02 13:08:15;;;;;;;0.97;0.33;;;8.50;99.90;;;;;;5054415;28;20561;-86